sensor_id;sensor_type;location;lat;lon;timestamp;temperature;humidity
13268;DHT22;6702;47.068;15.458;2023-04-07T00:02:17;5.70;43.50
13268;DHT22;6702;47.068;15.458;2023-04-07T00:05:21;5.80;43.50
13268;DHT22;6702;47.068;15.458;2023-04-07T00:08:26;5.70;43.70
13268;DHT22;6702;47.068;15.458;2023-04-07T00:11:29;5.70;43.50
13268;DHT22;6702;47.068;15.458;2023-04-07T00:14:32;5.70;44.00
13268;DHT22;6702;47.068;15.458;2023-04-07T00:17:35;5.70;44.00
13268;DHT22;6702;47.068;15.458;2023-04-07T00:20:38;5.60;44.10
13268;DHT22;6702;47.068;15.458;2023-04-07T00:23:43;5.60;44.40
13268;DHT22;6702;47.068;15.458;2023-04-07T00:26:47;5.60;44.50
13268;DHT22;6702;47.068;15.458;2023-04-07T00:29:50;5.50;44.70
13268;DHT22;6702;47.068;15.458;2023-04-07T00:32:56;5.40;45.00
13268;DHT22;6702;47.068;15.458;2023-04-07T00:35:59;5.40;45.10
13268;DHT22;6702;47.068;15.458;2023-04-07T00:39:03;5.40;45.20
13268;DHT22;6702;47.068;15.458;2023-04-07T00:42:07;5.40;45.30
13268;DHT22;6702;47.068;15.458;2023-04-07T00:45:10;5.30;45.40
13268;DHT22;6702;47.068;15.458;2023-04-07T00:48:13;5.40;45.30
13268;DHT22;6702;47.068;15.458;2023-04-07T00:51:17;5.40;45.30
13268;DHT22;6702;47.068;15.458;2023-04-07T00:54:24;5.30;45.50
13268;DHT22;6702;47.068;15.458;2023-04-07T00:57:27;5.30;45.60
13268;DHT22;6702;47.068;15.458;2023-04-07T01:00:31;5.30;45.70
13268;DHT22;6702;47.068;15.458;2023-04-07T01:03:40;5.30;45.90
13268;DHT22;6702;47.068;15.458;2023-04-07T01:06:49;5.30;45.90
13268;DHT22;6702;47.068;15.458;2023-04-07T01:09:57;5.30;45.90
13268;DHT22;6702;47.068;15.458;2023-04-07T01:13:08;5.20;46.00
13268;DHT22;6702;47.068;15.458;2023-04-07T01:16:26;5.20;46.20
13268;DHT22;6702;47.068;15.458;2023-04-07T01:19:33;5.20;46.30
13268;DHT22;6702;47.068;15.458;2023-04-07T01:22:43;5.20;46.50
13268;DHT22;6702;47.068;15.458;2023-04-07T01:26:03;5.20;46.80
13268;DHT22;6702;47.068;15.458;2023-04-07T01:29:32;5.10;46.90
13268;DHT22;6702;47.068;15.458;2023-04-07T01:32:36;5.10;46.80
13268;DHT22;6702;47.068;15.458;2023-04-07T01:35:42;5.10;46.90
13268;DHT22;6702;47.068;15.458;2023-04-07T01:38:45;5.10;47.10
13268;DHT22;6702;47.068;15.458;2023-04-07T01:41:50;5.20;47.40
13268;DHT22;6702;47.068;15.458;2023-04-07T01:44:57;5.10;47.60
13268;DHT22;6702;47.068;15.458;2023-04-07T01:48:03;5.00;47.60
13268;DHT22;6702;47.068;15.458;2023-04-07T01:51:07;5.10;47.80
13268;DHT22;6702;47.068;15.458;2023-04-07T01:54:12;5.00;47.80
13268;DHT22;6702;47.068;15.458;2023-04-07T01:57:15;5.00;47.80
13268;DHT22;6702;47.068;15.458;2023-04-07T02:00:20;5.00;48.00
13268;DHT22;6702;47.068;15.458;2023-04-07T02:03:28;5.00;48.10
13268;DHT22;6702;47.068;15.458;2023-04-07T02:06:36;5.00;48.10
13268;DHT22;6702;47.068;15.458;2023-04-07T02:09:41;5.00;48.20
13268;DHT22;6702;47.068;15.458;2023-04-07T02:12:45;4.90;48.30
13268;DHT22;6702;47.068;15.458;2023-04-07T02:15:51;5.00;48.50
13268;DHT22;6702;47.068;15.458;2023-04-07T02:18:56;4.90;48.30
13268;DHT22;6702;47.068;15.458;2023-04-07T02:22:00;4.90;48.40
13268;DHT22;6702;47.068;15.458;2023-04-07T02:25:20;4.90;48.60
13268;DHT22;6702;47.068;15.458;2023-04-07T02:28:23;4.90;48.50
13268;DHT22;6702;47.068;15.458;2023-04-07T02:31:28;4.90;48.30
13268;DHT22;6702;47.068;15.458;2023-04-07T02:34:31;4.90;48.30
13268;DHT22;6702;47.068;15.458;2023-04-07T02:37:34;4.90;48.60
13268;DHT22;6702;47.068;15.458;2023-04-07T02:40:37;4.90;48.80
13268;DHT22;6702;47.068;15.458;2023-04-07T02:43:41;4.90;48.90
13268;DHT22;6702;47.068;15.458;2023-04-07T02:46:45;4.90;48.80
13268;DHT22;6702;47.068;15.458;2023-04-07T02:49:48;5.00;48.80
13268;DHT22;6702;47.068;15.458;2023-04-07T02:52:51;4.90;49.00
13268;DHT22;6702;47.068;15.458;2023-04-07T02:55:55;4.90;48.80
13268;DHT22;6702;47.068;15.458;2023-04-07T02:58:58;4.90;48.80
13268;DHT22;6702;47.068;15.458;2023-04-07T03:02:02;4.90;48.90
13268;DHT22;6702;47.068;15.458;2023-04-07T03:05:06;4.90;49.10
13268;DHT22;6702;47.068;15.458;2023-04-07T03:08:09;4.90;49.20
13268;DHT22;6702;47.068;15.458;2023-04-07T03:11:13;4.90;49.50
13268;DHT22;6702;47.068;15.458;2023-04-07T03:14:17;4.80;49.60
13268;DHT22;6702;47.068;15.458;2023-04-07T03:17:21;4.90;49.50
13268;DHT22;6702;47.068;15.458;2023-04-07T03:20:24;4.80;49.70
13268;DHT22;6702;47.068;15.458;2023-04-07T03:23:29;4.80;49.80
13268;DHT22;6702;47.068;15.458;2023-04-07T03:26:32;4.80;50.20
13268;DHT22;6702;47.068;15.458;2023-04-07T03:29:35;4.80;50.20
13268;DHT22;6702;47.068;15.458;2023-04-07T03:32:39;4.80;50.20
13268;DHT22;6702;47.068;15.458;2023-04-07T03:35:43;4.90;50.30
13268;DHT22;6702;47.068;15.458;2023-04-07T03:38:47;4.90;50.20
13268;DHT22;6702;47.068;15.458;2023-04-07T03:41:50;4.90;50.00
13268;DHT22;6702;47.068;15.458;2023-04-07T03:44:53;4.90;50.10
13268;DHT22;6702;47.068;15.458;2023-04-07T03:47:58;4.90;50.20
13268;DHT22;6702;47.068;15.458;2023-04-07T03:51:01;5.00;50.20
13268;DHT22;6702;47.068;15.458;2023-04-07T03:54:05;5.00;50.00
13268;DHT22;6702;47.068;15.458;2023-04-07T03:57:08;5.00;49.90
13268;DHT22;6702;47.068;15.458;2023-04-07T04:00:12;5.00;49.90
13268;DHT22;6702;47.068;15.458;2023-04-07T04:03:16;5.00;50.10
13268;DHT22;6702;47.068;15.458;2023-04-07T04:06:20;5.00;50.30
13268;DHT22;6702;47.068;15.458;2023-04-07T04:09:23;5.00;50.20
13268;DHT22;6702;47.068;15.458;2023-04-07T04:12:26;5.00;50.00
13268;DHT22;6702;47.068;15.458;2023-04-07T04:15:29;5.10;49.90
13268;DHT22;6702;47.068;15.458;2023-04-07T04:18:34;5.10;49.80
13268;DHT22;6702;47.068;15.458;2023-04-07T04:21:37;5.20;49.60
13268;DHT22;6702;47.068;15.458;2023-04-07T04:24:40;5.20;49.60
13268;DHT22;6702;47.068;15.458;2023-04-07T04:27:43;5.20;50.30
13268;DHT22;6702;47.068;15.458;2023-04-07T04:30:47;5.20;49.80
13268;DHT22;6702;47.068;15.458;2023-04-07T04:33:51;5.20;49.80
13268;DHT22;6702;47.068;15.458;2023-04-07T04:36:55;5.20;49.80
13268;DHT22;6702;47.068;15.458;2023-04-07T04:39:58;5.20;50.10
13268;DHT22;6702;47.068;15.458;2023-04-07T04:43:01;5.30;50.10
13268;DHT22;6702;47.068;15.458;2023-04-07T04:46:07;5.30;50.10
13268;DHT22;6702;47.068;15.458;2023-04-07T04:49:12;5.30;50.10
13268;DHT22;6702;47.068;15.458;2023-04-07T04:52:16;5.30;50.10
13268;DHT22;6702;47.068;15.458;2023-04-07T04:55:19;5.40;50.20
13268;DHT22;6702;47.068;15.458;2023-04-07T04:58:22;5.40;50.30
13268;DHT22;6702;47.068;15.458;2023-04-07T05:01:26;5.50;50.50
13268;DHT22;6702;47.068;15.458;2023-04-07T05:04:31;5.50;50.70
13268;DHT22;6702;47.068;15.458;2023-04-07T05:07:34;5.50;50.60
13268;DHT22;6702;47.068;15.458;2023-04-07T05:10:38;5.50;50.50
13268;DHT22;6702;47.068;15.458;2023-04-07T05:13:41;5.60;50.60
13268;DHT22;6702;47.068;15.458;2023-04-07T05:16:45;5.70;50.40
13268;DHT22;6702;47.068;15.458;2023-04-07T05:19:49;5.80;50.10
13268;DHT22;6702;47.068;15.458;2023-04-07T05:22:52;5.90;49.70
13268;DHT22;6702;47.068;15.458;2023-04-07T05:25:56;5.90;49.50
13268;DHT22;6702;47.068;15.458;2023-04-07T05:28:59;5.90;49.30
13268;DHT22;6702;47.068;15.458;2023-04-07T05:32:04;6.00;49.20
13268;DHT22;6702;47.068;15.458;2023-04-07T05:35:09;6.10;49.40
13268;DHT22;6702;47.068;15.458;2023-04-07T05:38:12;6.20;49.40
13268;DHT22;6702;47.068;15.458;2023-04-07T05:41:17;6.20;49.30
13268;DHT22;6702;47.068;15.458;2023-04-07T05:44:20;6.30;49.80
13268;DHT22;6702;47.068;15.458;2023-04-07T05:47:23;6.40;49.10
13268;DHT22;6702;47.068;15.458;2023-04-07T05:50:28;6.50;48.80
13268;DHT22;6702;47.068;15.458;2023-04-07T05:53:31;6.50;48.80
13268;DHT22;6702;47.068;15.458;2023-04-07T05:56:34;6.60;48.60
13268;DHT22;6702;47.068;15.458;2023-04-07T05:59:37;6.70;48.50
13268;DHT22;6702;47.068;15.458;2023-04-07T06:02:40;6.80;48.40
13268;DHT22;6702;47.068;15.458;2023-04-07T06:05:46;6.90;48.40
13268;DHT22;6702;47.068;15.458;2023-04-07T06:08:49;6.90;48.20
13268;DHT22;6702;47.068;15.458;2023-04-07T06:11:52;7.10;48.40
13268;DHT22;6702;47.068;15.458;2023-04-07T06:14:55;7.20;48.10
13268;DHT22;6702;47.068;15.458;2023-04-07T06:17:58;7.30;47.70
13268;DHT22;6702;47.068;15.458;2023-04-07T06:21:03;7.50;47.60
13268;DHT22;6702;47.068;15.458;2023-04-07T06:24:07;7.70;47.10
13268;DHT22;6702;47.068;15.458;2023-04-07T06:27:10;7.90;46.70
13268;DHT22;6702;47.068;15.458;2023-04-07T06:30:14;8.30;46.30
13268;DHT22;6702;47.068;15.458;2023-04-07T06:33:17;8.80;45.20
13268;DHT22;6702;47.068;15.458;2023-04-07T06:36:26;9.60;43.90
13268;DHT22;6702;47.068;15.458;2023-04-07T06:39:29;10.90;41.60
13268;DHT22;6702;47.068;15.458;2023-04-07T06:42:33;12.20;39.50
13268;DHT22;6702;47.068;15.458;2023-04-07T06:45:36;13.40;37.20
13268;DHT22;6702;47.068;15.458;2023-04-07T06:48:39;14.70;35.20
13268;DHT22;6702;47.068;15.458;2023-04-07T06:51:43;16.00;33.00
13268;DHT22;6702;47.068;15.458;2023-04-07T06:54:46;16.90;30.70
13268;DHT22;6702;47.068;15.458;2023-04-07T06:57:50;17.80;29.60
13268;DHT22;6702;47.068;15.458;2023-04-07T07:00:53;18.70;28.50
13268;DHT22;6702;47.068;15.458;2023-04-07T07:03:56;19.00;27.60
13268;DHT22;6702;47.068;15.458;2023-04-07T07:07:02;19.20;27.40
13268;DHT22;6702;47.068;15.458;2023-04-07T07:10:09;19.00;26.80
13268;DHT22;6702;47.068;15.458;2023-04-07T07:13:12;18.60;26.80
13268;DHT22;6702;47.068;15.458;2023-04-07T07:16:15;18.50;27.00
13268;DHT22;6702;47.068;15.458;2023-04-07T07:19:19;19.00;26.20
13268;DHT22;6702;47.068;15.458;2023-04-07T07:22:23;19.50;25.80
13268;DHT22;6702;47.068;15.458;2023-04-07T07:25:26;19.50;25.20
13268;DHT22;6702;47.068;15.458;2023-04-07T07:28:30;19.20;25.70
13268;DHT22;6702;47.068;15.458;2023-04-07T07:31:33;19.10;25.70
13268;DHT22;6702;47.068;15.458;2023-04-07T07:34:36;19.80;25.90
13268;DHT22;6702;47.068;15.458;2023-04-07T07:37:41;21.70;24.80
13268;DHT22;6702;47.068;15.458;2023-04-07T07:40:45;24.20;23.20
13268;DHT22;6702;47.068;15.458;2023-04-07T07:43:48;25.90;21.10
13268;DHT22;6702;47.068;15.458;2023-04-07T07:46:51;27.20;20.00
13268;DHT22;6702;47.068;15.458;2023-04-07T07:49:55;28.40;18.80
13268;DHT22;6702;47.068;15.458;2023-04-07T07:52:59;29.30;17.20
13268;DHT22;6702;47.068;15.458;2023-04-07T07:56:03;30.10;17.00
13268;DHT22;6702;47.068;15.458;2023-04-07T07:59:06;31.10;16.40
13268;DHT22;6702;47.068;15.458;2023-04-07T08:02:09;31.50;15.30
13268;DHT22;6702;47.068;15.458;2023-04-07T08:05:12;31.10;15.00
13268;DHT22;6702;47.068;15.458;2023-04-07T08:08:17;31.50;14.70
13268;DHT22;6702;47.068;15.458;2023-04-07T08:11:20;32.20;13.20
13268;DHT22;6702;47.068;15.458;2023-04-07T08:14:24;32.30;12.90
13268;DHT22;6702;47.068;15.458;2023-04-07T08:17:27;31.60;11.70
13268;DHT22;6702;47.068;15.458;2023-04-07T08:20:30;30.40;11.50
13268;DHT22;6702;47.068;15.458;2023-04-07T08:23:35;28.30;12.80
13268;DHT22;6702;47.068;15.458;2023-04-07T08:26:38;28.80;13.60
13268;DHT22;6702;47.068;15.458;2023-04-07T08:29:41;30.70;12.00
13268;DHT22;6702;47.068;15.458;2023-04-07T08:32:44;32.50;11.30
13268;DHT22;6702;47.068;15.458;2023-04-07T08:35:47;31.20;11.10
13268;DHT22;6702;47.068;15.458;2023-04-07T08:38:52;31.40;10.70
13268;DHT22;6702;47.068;15.458;2023-04-07T08:41:57;32.20;10.60
13268;DHT22;6702;47.068;15.458;2023-04-07T08:45:04;32.50;10.30
13268;DHT22;6702;47.068;15.458;2023-04-07T08:48:15;34.80;9.80
13268;DHT22;6702;47.068;15.458;2023-04-07T08:51:26;36.30;9.40
13268;DHT22;6702;47.068;15.458;2023-04-07T08:54:30;38.40;8.70
13268;DHT22;6702;47.068;15.458;2023-04-07T08:57:35;37.10;8.10
13268;DHT22;6702;47.068;15.458;2023-04-07T09:00:39;34.50;9.00
13268;DHT22;6702;47.068;15.458;2023-04-07T09:03:44;34.60;9.00
13268;DHT22;6702;47.068;15.458;2023-04-07T09:06:48;33.10;8.20
13268;DHT22;6702;47.068;15.458;2023-04-07T09:09:54;32.40;9.10
13268;DHT22;6702;47.068;15.458;2023-04-07T09:12:57;32.60;9.10
13268;DHT22;6702;47.068;15.458;2023-04-07T09:16:01;31.80;9.30
13268;DHT22;6702;47.068;15.458;2023-04-07T09:19:04;31.50;9.90
13268;DHT22;6702;47.068;15.458;2023-04-07T09:22:07;31.90;10.00
13268;DHT22;6702;47.068;15.458;2023-04-07T09:25:16;33.60;9.20
13268;DHT22;6702;47.068;15.458;2023-04-07T09:28:20;33.00;8.60
13268;DHT22;6702;47.068;15.458;2023-04-07T09:31:43;31.10;9.70
13268;DHT22;6702;47.068;15.458;2023-04-07T09:34:46;29.30;10.80
13268;DHT22;6702;47.068;15.458;2023-04-07T09:38:04;28.10;12.00
13268;DHT22;6702;47.068;15.458;2023-04-07T09:41:11;28.00;11.80
13268;DHT22;6702;47.068;15.458;2023-04-07T09:44:14;27.80;12.20
13268;DHT22;6702;47.068;15.458;2023-04-07T09:47:25;27.90;12.10
13268;DHT22;6702;47.068;15.458;2023-04-07T09:50:33;29.40;11.90
13268;DHT22;6702;47.068;15.458;2023-04-07T09:53:41;30.90;10.80
13268;DHT22;6702;47.068;15.458;2023-04-07T09:56:46;31.10;9.70
13268;DHT22;6702;47.068;15.458;2023-04-07T09:59:52;29.60;10.50
13268;DHT22;6702;47.068;15.458;2023-04-07T10:02:57;28.70;11.00
13268;DHT22;6702;47.068;15.458;2023-04-07T10:06:00;26.80;11.60
13268;DHT22;6702;47.068;15.458;2023-04-07T10:09:04;25.40;12.50
13268;DHT22;6702;47.068;15.458;2023-04-07T10:12:08;24.60;13.30
13268;DHT22;6702;47.068;15.458;2023-04-07T10:15:12;23.90;14.00
13268;DHT22;6702;47.068;15.458;2023-04-07T10:18:16;23.30;14.30
13268;DHT22;6702;47.068;15.458;2023-04-07T10:21:22;23.50;14.50
13268;DHT22;6702;47.068;15.458;2023-04-07T10:24:36;23.50;14.50
13268;DHT22;6702;47.068;15.458;2023-04-07T10:27:50;22.30;14.60
13268;DHT22;6702;47.068;15.458;2023-04-07T10:30:54;21.60;14.80
13268;DHT22;6702;47.068;15.458;2023-04-07T10:33:57;21.40;15.40
13268;DHT22;6702;47.068;15.458;2023-04-07T10:37:09;21.00;15.50
13268;DHT22;6702;47.068;15.458;2023-04-07T10:40:30;20.50;15.70
13268;DHT22;6702;47.068;15.458;2023-04-07T10:43:38;19.40;16.70
13268;DHT22;6702;47.068;15.458;2023-04-07T10:47:01;19.70;16.30
13268;DHT22;6702;47.068;15.458;2023-04-07T10:50:19;19.80;16.70
13268;DHT22;6702;47.068;15.458;2023-04-07T10:53:22;19.70;16.40
13268;DHT22;6702;47.068;15.458;2023-04-07T10:56:25;19.20;16.50
13268;DHT22;6702;47.068;15.458;2023-04-07T10:59:30;19.00;16.80
13268;DHT22;6702;47.068;15.458;2023-04-07T11:02:34;19.20;17.10
13268;DHT22;6702;47.068;15.458;2023-04-07T11:05:38;19.70;16.60
13268;DHT22;6702;47.068;15.458;2023-04-07T11:08:42;20.30;16.60
13268;DHT22;6702;47.068;15.458;2023-04-07T11:11:49;20.80;16.60
13268;DHT22;6702;47.068;15.458;2023-04-07T11:14:54;21.10;15.90
13268;DHT22;6702;47.068;15.458;2023-04-07T11:18:09;21.20;15.80
13268;DHT22;6702;47.068;15.458;2023-04-07T11:21:17;21.40;15.50
13268;DHT22;6702;47.068;15.458;2023-04-07T11:24:32;21.40;15.30
13268;DHT22;6702;47.068;15.458;2023-04-07T11:27:38;20.90;15.30
13268;DHT22;6702;47.068;15.458;2023-04-07T11:30:48;20.80;15.60
13268;DHT22;6702;47.068;15.458;2023-04-07T11:33:53;21.20;15.90
13268;DHT22;6702;47.068;15.458;2023-04-07T11:36:58;21.00;15.30
13268;DHT22;6702;47.068;15.458;2023-04-07T11:40:30;20.40;15.90
13268;DHT22;6702;47.068;15.458;2023-04-07T11:43:35;20.20;16.20
13268;DHT22;6702;47.068;15.458;2023-04-07T11:46:53;20.00;16.50
13268;DHT22;6702;47.068;15.458;2023-04-07T11:49:56;20.00;16.70
13268;DHT22;6702;47.068;15.458;2023-04-07T11:53:00;20.10;16.60
13268;DHT22;6702;47.068;15.458;2023-04-07T11:56:07;20.30;16.50
13268;DHT22;6702;47.068;15.458;2023-04-07T11:59:21;20.50;16.40
13268;DHT22;6702;47.068;15.458;2023-04-07T12:02:33;20.40;15.80
13268;DHT22;6702;47.068;15.458;2023-04-07T12:05:43;20.80;15.80
13268;DHT22;6702;47.068;15.458;2023-04-07T12:08:46;20.70;15.90
13268;DHT22;6702;47.068;15.458;2023-04-07T12:11:49;20.10;16.10
13268;DHT22;6702;47.068;15.458;2023-04-07T12:14:53;19.30;16.30
13268;DHT22;6702;47.068;15.458;2023-04-07T12:17:57;19.30;16.70
13268;DHT22;6702;47.068;15.458;2023-04-07T12:21:01;19.80;16.50
13268;DHT22;6702;47.068;15.458;2023-04-07T12:24:04;20.40;16.30
13268;DHT22;6702;47.068;15.458;2023-04-07T12:27:07;20.60;15.60
13268;DHT22;6702;47.068;15.458;2023-04-07T12:30:11;20.80;15.50
13268;DHT22;6702;47.068;15.458;2023-04-07T12:33:16;21.00;15.60
13268;DHT22;6702;47.068;15.458;2023-04-07T12:36:19;20.70;15.60
13268;DHT22;6702;47.068;15.458;2023-04-07T12:39:22;20.70;16.00
13268;DHT22;6702;47.068;15.458;2023-04-07T12:42:25;20.80;15.70
13268;DHT22;6702;47.068;15.458;2023-04-07T12:45:29;20.90;15.90
13268;DHT22;6702;47.068;15.458;2023-04-07T12:48:33;21.00;15.60
13268;DHT22;6702;47.068;15.458;2023-04-07T12:51:36;20.90;16.00
13268;DHT22;6702;47.068;15.458;2023-04-07T12:54:41;21.00;15.70
13268;DHT22;6702;47.068;15.458;2023-04-07T12:57:45;21.10;15.90
13268;DHT22;6702;47.068;15.458;2023-04-07T13:00:48;20.90;15.30
13268;DHT22;6702;47.068;15.458;2023-04-07T13:03:52;20.60;15.50
13268;DHT22;6702;47.068;15.458;2023-04-07T13:06:56;20.70;15.40
13268;DHT22;6702;47.068;15.458;2023-04-07T13:09:59;20.90;15.70
13268;DHT22;6702;47.068;15.458;2023-04-07T13:13:02;20.80;15.90
13268;DHT22;6702;47.068;15.458;2023-04-07T13:16:05;20.90;15.90
13268;DHT22;6702;47.068;15.458;2023-04-07T13:19:10;21.20;15.70
13268;DHT22;6702;47.068;15.458;2023-04-07T13:22:13;21.50;15.40
13268;DHT22;6702;47.068;15.458;2023-04-07T13:25:22;21.70;16.00
13268;DHT22;6702;47.068;15.458;2023-04-07T13:28:25;21.30;18.30
13268;DHT22;6702;47.068;15.458;2023-04-07T13:31:28;20.10;19.70
13268;DHT22;6702;47.068;15.458;2023-04-07T13:34:33;19.80;20.40
13268;DHT22;6702;47.068;15.458;2023-04-07T13:37:36;19.70;20.40
13268;DHT22;6702;47.068;15.458;2023-04-07T13:40:39;19.30;20.50
13268;DHT22;6702;47.068;15.458;2023-04-07T13:43:43;19.50;20.90
13268;DHT22;6702;47.068;15.458;2023-04-07T13:46:46;19.50;20.60
13268;DHT22;6702;47.068;15.458;2023-04-07T13:49:51;19.40;20.20
13268;DHT22;6702;47.068;15.458;2023-04-07T13:52:54;19.10;21.00
13268;DHT22;6702;47.068;15.458;2023-04-07T13:55:57;19.20;21.10
13268;DHT22;6702;47.068;15.458;2023-04-07T13:59:01;18.90;23.10
13268;DHT22;6702;47.068;15.458;2023-04-07T14:02:04;18.60;22.60
13268;DHT22;6702;47.068;15.458;2023-04-07T14:05:12;18.30;21.50
13268;DHT22;6702;47.068;15.458;2023-04-07T14:08:15;17.70;22.20
13268;DHT22;6702;47.068;15.458;2023-04-07T14:11:20;17.50;22.60
13268;DHT22;6702;47.068;15.458;2023-04-07T14:14:23;17.80;22.50
13268;DHT22;6702;47.068;15.458;2023-04-07T14:17:26;17.70;22.80
13268;DHT22;6702;47.068;15.458;2023-04-07T14:20:31;17.90;22.30
13268;DHT22;6702;47.068;15.458;2023-04-07T14:23:34;18.10;21.90
13268;DHT22;6702;47.068;15.458;2023-04-07T14:26:38;18.10;21.90
13268;DHT22;6702;47.068;15.458;2023-04-07T14:29:41;18.00;21.80
13268;DHT22;6702;47.068;15.458;2023-04-07T14:32:45;17.80;22.10
13268;DHT22;6702;47.068;15.458;2023-04-07T14:35:49;17.90;22.30
13268;DHT22;6702;47.068;15.458;2023-04-07T14:38:53;17.70;22.40
13268;DHT22;6702;47.068;15.458;2023-04-07T14:41:56;17.50;22.50
13268;DHT22;6702;47.068;15.458;2023-04-07T14:44:59;17.60;22.60
13268;DHT22;6702;47.068;15.458;2023-04-07T14:48:04;17.60;22.50
13268;DHT22;6702;47.068;15.458;2023-04-07T14:51:11;17.50;22.30
13268;DHT22;6702;47.068;15.458;2023-04-07T14:54:14;17.30;22.60
13268;DHT22;6702;47.068;15.458;2023-04-07T14:57:17;17.50;22.60
13268;DHT22;6702;47.068;15.458;2023-04-07T15:00:21;17.50;22.50
13268;DHT22;6702;47.068;15.458;2023-04-07T15:03:26;17.50;22.80
13268;DHT22;6702;47.068;15.458;2023-04-07T15:06:31;17.40;22.70
13268;DHT22;6702;47.068;15.458;2023-04-07T15:09:34;17.40;23.10
13268;DHT22;6702;47.068;15.458;2023-04-07T15:12:37;17.20;23.00
13268;DHT22;6702;47.068;15.458;2023-04-07T15:15:40;17.20;23.40
13268;DHT22;6702;47.068;15.458;2023-04-07T15:18:44;17.00;23.50
13268;DHT22;6702;47.068;15.458;2023-04-07T15:21:49;16.90;23.70
13268;DHT22;6702;47.068;15.458;2023-04-07T15:24:52;16.80;23.80
13268;DHT22;6702;47.068;15.458;2023-04-07T15:27:55;16.50;24.10
13268;DHT22;6702;47.068;15.458;2023-04-07T15:30:59;16.50;24.50
13268;DHT22;6702;47.068;15.458;2023-04-07T15:34:02;16.30;24.90
13268;DHT22;6702;47.068;15.458;2023-04-07T15:37:07;15.90;25.50
13268;DHT22;6702;47.068;15.458;2023-04-07T15:40:10;15.70;26.10
13268;DHT22;6702;47.068;15.458;2023-04-07T15:43:14;15.50;26.40
13268;DHT22;6702;47.068;15.458;2023-04-07T15:46:17;15.50;27.00
13268;DHT22;6702;47.068;15.458;2023-04-07T15:49:20;15.30;27.70
13268;DHT22;6702;47.068;15.458;2023-04-07T15:52:28;15.20;28.20
13268;DHT22;6702;47.068;15.458;2023-04-07T15:55:31;15.20;28.70
13268;DHT22;6702;47.068;15.458;2023-04-07T15:58:34;15.10;29.00
13268;DHT22;6702;47.068;15.458;2023-04-07T16:01:38;15.10;29.30
13268;DHT22;6702;47.068;15.458;2023-04-07T16:04:42;14.80;29.50
13268;DHT22;6702;47.068;15.458;2023-04-07T16:07:49;14.60;30.00
13268;DHT22;6702;47.068;15.458;2023-04-07T16:10:52;14.50;29.90
13268;DHT22;6702;47.068;15.458;2023-04-07T16:13:55;14.40;30.10
13268;DHT22;6702;47.068;15.458;2023-04-07T16:16:58;14.40;30.30
13268;DHT22;6702;47.068;15.458;2023-04-07T16:20:02;14.40;30.60
13268;DHT22;6702;47.068;15.458;2023-04-07T16:23:07;14.20;31.00
13268;DHT22;6702;47.068;15.458;2023-04-07T16:26:10;14.10;31.10
13268;DHT22;6702;47.068;15.458;2023-04-07T16:29:14;14.00;31.30
13268;DHT22;6702;47.068;15.458;2023-04-07T16:32:17;13.80;31.50
13268;DHT22;6702;47.068;15.458;2023-04-07T16:35:20;13.60;31.80
13268;DHT22;6702;47.068;15.458;2023-04-07T16:38:24;13.50;31.90
13268;DHT22;6702;47.068;15.458;2023-04-07T16:41:29;13.50;32.00
13268;DHT22;6702;47.068;15.458;2023-04-07T16:44:33;13.30;32.30
13268;DHT22;6702;47.068;15.458;2023-04-07T16:47:36;13.20;32.50
13268;DHT22;6702;47.068;15.458;2023-04-07T16:50:41;13.30;33.40
13268;DHT22;6702;47.068;15.458;2023-04-07T16:53:45;13.30;32.90
13268;DHT22;6702;47.068;15.458;2023-04-07T16:56:49;13.40;33.10
13268;DHT22;6702;47.068;15.458;2023-04-07T16:59:52;13.20;33.50
13268;DHT22;6702;47.068;15.458;2023-04-07T17:02:55;13.30;33.50
13268;DHT22;6702;47.068;15.458;2023-04-07T17:05:59;13.30;33.70
13268;DHT22;6702;47.068;15.458;2023-04-07T17:09:07;13.00;33.80
13268;DHT22;6702;47.068;15.458;2023-04-07T17:12:12;12.90;34.20
13268;DHT22;6702;47.068;15.458;2023-04-07T17:15:16;12.90;34.40
13268;DHT22;6702;47.068;15.458;2023-04-07T17:18:21;12.90;34.70
13268;DHT22;6702;47.068;15.458;2023-04-07T17:21:24;12.80;34.60
13268;DHT22;6702;47.068;15.458;2023-04-07T17:24:29;12.70;34.80
13268;DHT22;6702;47.068;15.458;2023-04-07T17:27:32;12.70;34.80
13268;DHT22;6702;47.068;15.458;2023-04-07T17:30:36;12.80;35.00
13268;DHT22;6702;47.068;15.458;2023-04-07T17:33:39;12.80;35.90
13268;DHT22;6702;47.068;15.458;2023-04-07T17:36:42;12.70;35.80
13268;DHT22;6702;47.068;15.458;2023-04-07T17:39:46;12.60;35.70
13268;DHT22;6702;47.068;15.458;2023-04-07T17:42:50;12.30;36.00
13268;DHT22;6702;47.068;15.458;2023-04-07T17:45:53;12.20;36.30
13268;DHT22;6702;47.068;15.458;2023-04-07T17:48:56;12.20;36.50
13268;DHT22;6702;47.068;15.458;2023-04-07T17:51:59;12.00;37.10
13268;DHT22;6702;47.068;15.458;2023-04-07T17:55:06;11.90;37.50
13268;DHT22;6702;47.068;15.458;2023-04-07T17:58:09;11.90;37.50
13268;DHT22;6702;47.068;15.458;2023-04-07T18:01:13;11.80;37.60
13268;DHT22;6702;47.068;15.458;2023-04-07T18:04:17;11.80;37.60
13268;DHT22;6702;47.068;15.458;2023-04-07T18:07:20;11.80;37.70
13268;DHT22;6702;47.068;15.458;2023-04-07T18:10:25;11.80;37.80
13268;DHT22;6702;47.068;15.458;2023-04-07T18:13:29;11.90;37.80
13268;DHT22;6702;47.068;15.458;2023-04-07T18:16:32;11.80;37.70
13268;DHT22;6702;47.068;15.458;2023-04-07T18:19:36;11.80;37.80
13268;DHT22;6702;47.068;15.458;2023-04-07T18:22:39;11.80;38.10
13268;DHT22;6702;47.068;15.458;2023-04-07T18:25:44;11.80;38.20
13268;DHT22;6702;47.068;15.458;2023-04-07T18:28:47;11.80;38.30
13268;DHT22;6702;47.068;15.458;2023-04-07T18:31:51;11.70;38.30
13268;DHT22;6702;47.068;15.458;2023-04-07T18:34:54;11.70;38.30
13268;DHT22;6702;47.068;15.458;2023-04-07T18:37:57;11.60;38.20
13268;DHT22;6702;47.068;15.458;2023-04-07T18:41:01;11.70;38.30
13268;DHT22;6702;47.068;15.458;2023-04-07T18:44:05;11.60;38.50
13268;DHT22;6702;47.068;15.458;2023-04-07T18:47:08;11.40;39.00
13268;DHT22;6702;47.068;15.458;2023-04-07T18:50:11;11.20;39.30
13268;DHT22;6702;47.068;15.458;2023-04-07T18:53:14;11.20;39.60
13268;DHT22;6702;47.068;15.458;2023-04-07T18:56:19;11.30;39.70
13268;DHT22;6702;47.068;15.458;2023-04-07T18:59:23;11.20;39.70
13268;DHT22;6702;47.068;15.458;2023-04-07T19:02:26;11.20;39.90
13268;DHT22;6702;47.068;15.458;2023-04-07T19:05:30;11.20;40.00
13268;DHT22;6702;47.068;15.458;2023-04-07T19:08:34;11.30;40.10
13268;DHT22;6702;47.068;15.458;2023-04-07T19:11:39;11.30;40.00
13268;DHT22;6702;47.068;15.458;2023-04-07T19:14:43;11.40;40.00
13268;DHT22;6702;47.068;15.458;2023-04-07T19:17:46;11.40;40.00
13268;DHT22;6702;47.068;15.458;2023-04-07T19:20:49;11.40;40.00
13268;DHT22;6702;47.068;15.458;2023-04-07T19:23:53;11.50;39.90
13268;DHT22;6702;47.068;15.458;2023-04-07T19:26:58;11.50;39.90
13268;DHT22;6702;47.068;15.458;2023-04-07T19:30:01;11.50;40.00
13268;DHT22;6702;47.068;15.458;2023-04-07T19:33:05;11.40;40.20
13268;DHT22;6702;47.068;15.458;2023-04-07T19:36:08;11.40;40.40